Pittsburgh, Pennsylvania
Traffic Map
Current Weather Conditions
Pittsburgh, Pennsylvania
Overcast
Overcast
23°
Feels Like: 23°
Wind Chill: 23° Ceiling: 900
Heat Index: 23° Visibility: 10mi
Dew Point: 19° Wind: 0mph
Humidity: 85% Direction: ° ()
Pressure: 30.2in Gusts: 0mph
Raw Report DataKAGC 101453Z 00000KT 10SM OVC009 M05/M07 A3020 RMK AO2 SLP250 T10501072 53014
Traffic Incident Summary
Active as of:
Severity:
Category:
InformationThere was an issue retrieving the traffic information for this location. Please try a different location or try again shortly.
Advertisements